createdAt,value
2023-09-09T00:02:15.537Z,7.00
2023-09-09T00:04:44.217Z,8.32
2023-09-09T00:07:13.034Z,8.18
2023-09-09T00:09:42.299Z,8.00
2023-09-09T00:12:10.035Z,7.45
2023-09-09T00:14:38.473Z,7.47
2023-09-09T00:17:06.133Z,7.43
2023-09-09T00:19:35.279Z,10.35
2023-09-09T00:22:03.110Z,10.38
2023-09-09T00:24:30.709Z,8.90
2023-09-09T00:27:00.849Z,9.00
2023-09-09T00:29:28.507Z,7.88
2023-09-09T00:31:56.561Z,7.97
2023-09-09T00:34:24.205Z,8.30
2023-09-09T00:36:51.837Z,8.00
2023-09-09T00:39:19.450Z,8.88
2023-09-09T00:41:47.193Z,7.90
2023-09-09T00:44:15.106Z,8.40
2023-09-09T00:46:44.289Z,8.13
2023-09-09T00:49:12.036Z,7.85
2023-09-09T00:51:39.886Z,9.02
2023-09-09T00:54:07.599Z,7.60
2023-09-09T00:56:35.388Z,8.73
2023-09-09T00:59:03.294Z,8.52
2023-09-09T01:01:32.532Z,7.88
2023-09-09T01:04:00.755Z,8.18
2023-09-09T01:06:28.730Z,8.45
2023-09-09T01:08:56.284Z,9.68
2023-09-09T01:11:23.876Z,7.95
2023-09-09T01:13:51.491Z,8.25
2023-09-09T01:16:19.178Z,8.68
2023-09-09T01:18:48.549Z,9.18
2023-09-09T01:21:19.356Z,9.02
2023-09-09T01:23:47.954Z,9.43
2023-09-09T01:26:15.643Z,9.20
2023-09-09T01:28:43.346Z,9.45
2023-09-09T01:31:11.148Z,9.65
2023-09-09T01:33:38.898Z,9.10
2023-09-09T01:36:06.782Z,8.90
2023-09-09T01:38:35.461Z,9.93
2023-09-09T01:41:06.140Z,9.48
2023-09-09T01:43:35.784Z,8.98
2023-09-09T01:46:04.487Z,8.38
2023-09-09T01:48:32.163Z,8.50
2023-09-09T01:50:59.871Z,9.63
2023-09-09T01:53:28.354Z,9.50
2023-09-09T01:55:59.554Z,9.90
2023-09-09T01:58:28.134Z,8.98
2023-09-09T02:00:55.739Z,8.77
2023-09-09T02:03:23.503Z,9.93
2023-09-09T02:05:51.167Z,9.70
2023-09-09T02:08:18.752Z,9.80
2023-09-09T02:10:51.139Z,10.05
2023-09-09T02:13:18.762Z,9.90
2023-09-09T02:15:46.377Z,9.43
2023-09-09T02:18:13.975Z,10.00
2023-09-09T02:20:41.558Z,9.15
2023-09-09T02:23:09.216Z,9.93
2023-09-09T02:25:38.146Z,9.32
2023-09-09T02:28:05.995Z,10.32
2023-09-09T02:30:33.637Z,9.75
2023-09-09T02:33:01.335Z,9.48
2023-09-09T02:35:28.988Z,10.10
2023-09-09T02:37:57.403Z,9.45
2023-09-09T02:40:25.222Z,9.45
2023-09-09T02:42:52.800Z,10.32
2023-09-09T02:45:20.460Z,9.85
2023-09-09T02:47:48.581Z,11.10
2023-09-09T02:50:16.263Z,10.15
2023-09-09T02:52:43.831Z,10.57
2023-09-09T02:55:11.557Z,10.32
2023-09-09T02:57:39.201Z,10.85
2023-09-09T03:00:10.433Z,9.82
2023-09-09T03:02:38.204Z,9.75
2023-09-09T03:05:06.484Z,10.55
2023-09-09T03:07:34.038Z,9.80
2023-09-09T03:10:01.749Z,10.13
2023-09-09T03:12:29.710Z,9.57
2023-09-09T03:14:57.298Z,10.18
2023-09-09T03:17:24.893Z,9.70
2023-09-09T03:19:52.553Z,9.90
2023-09-09T03:22:20.157Z,11.05
2023-09-09T03:24:48.856Z,9.60
2023-09-09T03:27:16.466Z,10.07
2023-09-09T03:29:44.319Z,9.88
2023-09-09T03:32:13.512Z,10.25
2023-09-09T03:34:42.100Z,9.57
2023-09-09T03:37:10.004Z,8.98
2023-09-09T03:39:37.735Z,9.25
2023-09-09T03:42:05.869Z,9.00
2023-09-09T03:44:33.426Z,9.98
2023-09-09T03:47:01.094Z,10.15
2023-09-09T03:49:29.284Z,10.02
2023-09-09T03:51:56.938Z,9.48
2023-09-09T03:54:24.535Z,10.15
2023-09-09T03:56:52.235Z,10.30
2023-09-09T03:59:20.167Z,10.00
2023-09-09T04:01:47.783Z,9.38
2023-09-09T04:04:15.392Z,9.98
2023-09-09T04:06:43.178Z,10.70
2023-09-09T04:09:10.777Z,9.75
2023-09-09T04:11:38.965Z,9.18
2023-09-09T04:14:06.949Z,8.93
2023-09-09T04:16:34.631Z,10.25
2023-09-09T04:19:02.512Z,9.32
2023-09-09T04:21:30.480Z,8.63
2023-09-09T04:23:58.061Z,8.48
2023-09-09T04:26:25.880Z,9.48
2023-09-09T04:28:53.747Z,9.70
2023-09-09T04:31:21.503Z,10.10
2023-09-09T04:33:49.464Z,8.75
2023-09-09T04:36:17.245Z,10.18
2023-09-09T04:38:44.902Z,8.48
2023-09-09T04:41:12.450Z,8.48
2023-09-09T04:43:40.820Z,9.50
2023-09-09T04:46:08.764Z,9.88
2023-09-09T04:48:36.794Z,10.10
2023-09-09T04:51:04.573Z,8.40
2023-09-09T04:53:32.286Z,8.60
2023-09-09T04:56:01.668Z,8.88
2023-09-09T04:58:30.941Z,9.20
2023-09-09T05:00:59.117Z,9.45
2023-09-09T05:03:26.894Z,9.02
2023-09-09T05:05:54.469Z,9.27
2023-09-09T05:08:22.292Z,8.25
2023-09-09T05:10:49.907Z,8.77
2023-09-09T05:13:17.678Z,10.27
2023-09-09T05:15:45.255Z,10.00
2023-09-09T05:18:13.005Z,9.45
2023-09-09T05:20:40.662Z,9.05
2023-09-09T05:23:08.275Z,9.30
2023-09-09T05:25:35.959Z,9.52
2023-09-09T05:28:04.154Z,9.02
2023-09-09T05:30:31.744Z,8.95
2023-09-09T05:32:59.505Z,9.27
2023-09-09T05:35:27.415Z,8.57
2023-09-09T05:37:55.606Z,9.38
2023-09-09T05:40:23.393Z,9.63
2023-09-09T05:42:51.044Z,9.38
2023-09-09T05:45:18.710Z,9.52
2023-09-09T05:47:46.898Z,9.13
2023-09-09T05:50:14.539Z,9.60
2023-09-09T05:52:43.663Z,10.93
2023-09-09T05:55:11.832Z,13.27
2023-09-09T05:57:40.454Z,12.68
2023-09-09T06:00:10.370Z,13.75
2023-09-09T06:02:40.654Z,13.50
2023-09-09T06:05:10.906Z,13.15
2023-09-09T06:07:41.147Z,12.13
2023-09-09T06:10:11.148Z,11.88
2023-09-09T06:12:38.883Z,12.85
2023-09-09T06:15:07.641Z,11.13
2023-09-09T06:17:37.412Z,13.02
2023-09-09T06:20:06.428Z,11.15
2023-09-09T06:22:35.409Z,12.10
2023-09-09T06:25:05.467Z,12.07
2023-09-09T06:27:33.051Z,11.38
2023-09-09T06:30:00.729Z,10.75
2023-09-09T06:32:29.228Z,11.45
2023-09-09T06:34:57.055Z,11.13
2023-09-09T06:37:25.452Z,11.70
2023-09-09T06:39:53.075Z,10.88
2023-09-09T06:42:20.646Z,10.18
2023-09-09T06:44:52.680Z,10.00
2023-09-09T06:47:20.276Z,10.90
2023-09-09T06:49:49.844Z,11.02
2023-09-09T06:52:17.824Z,11.98
2023-09-09T06:54:45.390Z,11.63
2023-09-09T06:57:12.968Z,11.35
2023-09-09T06:59:41.197Z,11.00
2023-09-09T07:02:09.012Z,9.60
2023-09-09T07:04:36.784Z,10.88
2023-09-09T07:07:12.144Z,9.70
2023-09-09T07:09:40.955Z,9.73
2023-09-09T07:12:10.923Z,11.68
2023-09-09T07:14:41.908Z,9.55
2023-09-09T07:17:11.022Z,9.65
2023-09-09T07:19:38.711Z,9.38
2023-09-09T07:22:07.529Z,9.93
2023-09-09T07:24:35.241Z,9.77
2023-09-09T07:27:04.769Z,9.40
2023-09-09T07:29:32.505Z,9.82
2023-09-09T07:32:00.231Z,9.60
2023-09-09T07:34:27.848Z,9.10
2023-09-09T07:36:55.436Z,9.13
2023-09-09T07:39:23.303Z,9.23
2023-09-09T07:41:50.885Z,9.88
2023-09-09T07:44:18.432Z,8.70
2023-09-09T07:46:46.065Z,10.13
2023-09-09T07:49:14.792Z,9.60
2023-09-09T07:51:42.377Z,9.05
2023-09-09T07:54:09.946Z,9.38
2023-09-09T07:56:37.583Z,9.68
2023-09-09T07:59:05.257Z,10.00
2023-09-09T08:01:32.897Z,9.02
2023-09-09T08:04:00.673Z,9.65
2023-09-09T08:06:28.467Z,9.27
2023-09-09T08:08:56.341Z,9.30
2023-09-09T08:11:23.993Z,8.85
2023-09-09T08:13:51.560Z,9.02
2023-09-09T08:16:19.185Z,9.23
2023-09-09T08:18:47.305Z,8.80
2023-09-09T08:21:15.570Z,9.38
2023-09-09T08:23:43.420Z,9.48
2023-09-09T08:26:13.268Z,9.15
2023-09-09T08:28:41.240Z,9.02
2023-09-09T08:31:08.885Z,9.20
2023-09-09T08:33:36.980Z,8.55
2023-09-09T08:36:05.273Z,9.57
2023-09-09T08:38:32.947Z,8.20
2023-09-09T08:41:25.710Z,8.90
2023-09-09T08:44:19.099Z,9.20
2023-09-09T08:46:46.817Z,10.07
2023-09-09T08:49:18.289Z,9.35
2023-09-09T08:51:57.122Z,8.45
2023-09-09T08:54:26.724Z,8.50
2023-09-09T08:56:55.669Z,7.88
2023-09-09T08:59:23.563Z,8.38
2023-09-09T09:01:52.608Z,8.10
2023-09-09T09:04:22.469Z,8.73
2023-09-09T09:06:51.219Z,8.65
2023-09-09T09:09:19.012Z,7.53
2023-09-09T09:11:46.612Z,7.82
2023-09-09T09:14:14.377Z,8.15
2023-09-09T09:16:45.110Z,8.43
2023-09-09T09:19:22.650Z,8.43
2023-09-09T09:21:51.469Z,7.57
2023-09-09T09:24:26.954Z,8.85
2023-09-09T09:26:56.700Z,7.93
2023-09-09T09:29:24.433Z,8.25
2023-09-09T09:31:55.373Z,7.50
2023-09-09T09:34:34.655Z,9.20
2023-09-09T09:37:13.410Z,8.15
2023-09-09T09:39:41.292Z,8.13
2023-09-09T09:42:12.982Z,9.20
2023-09-09T09:44:40.698Z,9.20
2023-09-09T09:47:09.997Z,7.97
2023-09-09T09:49:45.132Z,8.13
2023-09-09T09:52:24.773Z,7.63
2023-09-09T09:54:54.301Z,8.60
2023-09-09T09:57:27.424Z,7.20
2023-09-09T10:02:22.670Z,7.28
2023-09-09T10:04:52.496Z,6.95
2023-09-09T10:07:24.534Z,7.65
2023-09-09T10:10:05.411Z,6.85
2023-09-09T10:12:51.448Z,7.45
2023-09-09T10:15:21.771Z,7.25
2023-09-09T10:17:54.152Z,7.38
2023-09-09T10:20:24.539Z,8.13
2023-09-09T10:22:59.121Z,8.38
2023-09-09T10:25:31.419Z,7.22
2023-09-09T10:28:00.695Z,6.80
2023-09-09T10:30:29.937Z,6.78
2023-09-09T10:33:01.126Z,7.40
2023-09-09T10:35:29.482Z,7.45
2023-09-09T10:37:58.877Z,7.32
2023-09-09T10:40:27.671Z,7.00
2023-09-09T10:42:55.724Z,6.85
2023-09-09T10:45:31.059Z,6.78
2023-09-09T10:48:06.989Z,6.80
2023-09-09T10:50:53.997Z,6.88
2023-09-09T10:53:31.575Z,6.72
2023-09-09T10:56:22.106Z,7.57
2023-09-09T10:58:54.817Z,6.78
2023-09-09T11:01:24.990Z,6.72
2023-09-09T11:03:54.137Z,7.47
2023-09-09T11:06:30.094Z,6.97
2023-09-09T11:09:03.790Z,6.55
2023-09-09T11:11:38.469Z,7.28
2023-09-09T11:14:08.462Z,7.78
2023-09-09T11:16:38.191Z,6.15
2023-09-09T11:19:15.182Z,6.07
2023-09-09T11:21:46.314Z,6.25
2023-09-09T11:24:14.861Z,6.63
2023-09-09T11:26:45.941Z,6.85
2023-09-09T11:29:25.789Z,5.80
2023-09-09T11:32:03.808Z,6.35
2023-09-09T11:34:33.559Z,6.35
2023-09-09T11:37:03.605Z,6.30
2023-09-09T11:39:31.356Z,6.68
2023-09-09T11:42:02.110Z,6.00
2023-09-09T11:44:37.115Z,6.40
2023-09-09T11:47:04.881Z,6.40
2023-09-09T11:49:32.473Z,5.95
2023-09-09T11:52:01.223Z,6.50
2023-09-09T11:54:28.848Z,6.95
2023-09-09T11:57:10.724Z,6.50
2023-09-09T11:59:50.119Z,6.43
2023-09-09T12:02:25.921Z,6.95
2023-09-09T12:05:04.982Z,6.40
2023-09-09T12:07:35.773Z,6.38
2023-09-09T12:10:08.415Z,6.40
2023-09-09T12:12:36.298Z,6.50
2023-09-09T12:15:05.256Z,5.95
2023-09-09T12:17:32.989Z,6.78
2023-09-09T12:20:09.291Z,6.72
2023-09-09T12:22:48.162Z,7.10
2023-09-09T12:25:36.696Z,6.88
2023-09-09T12:28:05.029Z,6.10
2023-09-09T12:30:38.340Z,5.55
2023-09-09T12:33:12.378Z,5.97
2023-09-09T12:35:50.974Z,6.47
2023-09-09T12:38:20.386Z,6.20
2023-09-09T12:40:49.231Z,6.10
2023-09-09T12:43:23.109Z,5.88
2023-09-09T12:46:25.843Z,5.65
2023-09-09T12:48:59.469Z,5.63
2023-09-09T12:51:30.349Z,14.57
2023-09-09T12:53:59.433Z,5.65
2023-09-09T12:56:27.068Z,8.18
2023-09-09T12:58:54.659Z,5.85
2023-09-09T13:01:22.444Z,6.18
2023-09-09T13:03:50.081Z,5.97
2023-09-09T13:06:17.635Z,6.20
2023-09-09T13:08:45.186Z,5.65
2023-09-09T13:11:12.790Z,6.30
2023-09-09T13:13:41.199Z,5.55
2023-09-09T13:16:09.402Z,6.32
2023-09-09T13:18:37.108Z,5.80
2023-09-09T13:21:04.987Z,6.35
2023-09-09T13:23:32.833Z,6.72
2023-09-09T13:26:00.725Z,6.43
2023-09-09T13:28:28.311Z,5.45
2023-09-09T13:30:55.891Z,6.10
2023-09-09T13:33:23.598Z,5.75
2023-09-09T13:35:51.214Z,5.60
2023-09-09T13:38:18.837Z,6.18
2023-09-09T13:40:46.531Z,5.63
2023-09-09T13:43:14.207Z,6.68
2023-09-09T13:45:41.922Z,6.07
2023-09-09T13:48:09.535Z,5.63
2023-09-09T13:50:37.185Z,5.85
2023-09-09T13:53:04.900Z,5.82
2023-09-09T13:55:32.478Z,6.25
2023-09-09T13:58:00.023Z,5.72
2023-09-09T14:00:27.600Z,6.20
2023-09-09T14:02:55.291Z,5.95
2023-09-09T14:05:22.991Z,5.65
2023-09-09T14:07:50.615Z,6.07
2023-09-09T14:10:18.366Z,5.85
2023-09-09T14:12:45.927Z,5.75
2023-09-09T14:15:13.660Z,4.93
2023-09-09T14:17:41.326Z,6.63
2023-09-09T14:20:10.048Z,6.50
2023-09-09T14:22:37.757Z,5.32
2023-09-09T14:25:06.797Z,5.85
2023-09-09T14:27:34.487Z,5.95
2023-09-09T14:30:02.110Z,5.50
2023-09-09T14:32:29.676Z,7.07
2023-09-09T14:34:57.259Z,6.45
2023-09-09T14:37:25.334Z,5.30
2023-09-09T14:39:52.942Z,5.60
2023-09-09T14:42:20.468Z,5.72
2023-09-09T14:44:49.189Z,5.97
2023-09-09T14:47:16.786Z,5.35
2023-09-09T14:49:44.406Z,5.40
2023-09-09T14:52:13.061Z,6.45
2023-09-09T14:54:40.859Z,5.90
2023-09-09T14:57:08.553Z,5.97
2023-09-09T14:59:36.181Z,5.68
2023-09-09T15:02:04.019Z,6.05
2023-09-09T15:04:31.769Z,5.78
2023-09-09T15:06:59.378Z,5.18
2023-09-09T15:09:26.968Z,6.43
2023-09-09T15:11:55.020Z,6.05
2023-09-09T15:14:22.625Z,5.88
2023-09-09T15:16:59.112Z,5.75
2023-09-09T15:19:26.728Z,5.75
2023-09-09T15:21:55.620Z,5.55
2023-09-09T15:24:23.157Z,5.18
2023-09-09T15:26:51.681Z,5.95
2023-09-09T15:29:19.248Z,6.43
2023-09-09T15:31:46.915Z,5.90
2023-09-09T15:34:14.566Z,6.43
2023-09-09T15:36:42.211Z,5.20
2023-09-09T15:39:11.281Z,5.57
2023-09-09T15:41:42.052Z,8.07
2023-09-09T15:44:10.244Z,7.28
2023-09-09T15:46:39.092Z,6.15
2023-09-09T15:49:07.143Z,6.50
2023-09-09T15:51:34.755Z,5.65
2023-09-09T15:54:02.429Z,7.15
2023-09-09T15:56:30.048Z,6.13
2023-09-09T15:58:57.743Z,6.45
2023-09-09T16:01:25.568Z,5.60
2023-09-09T16:03:53.281Z,5.45
2023-09-09T16:06:20.947Z,5.18
2023-09-09T16:08:49.162Z,5.75
2023-09-09T16:11:17.409Z,4.85
2023-09-09T16:13:45.045Z,5.57
2023-09-09T16:16:14.409Z,6.15
2023-09-09T16:18:42.555Z,6.07
2023-09-09T16:21:10.329Z,5.82
2023-09-09T16:23:38.486Z,6.35
2023-09-09T16:26:06.530Z,5.47
2023-09-09T16:28:34.119Z,5.50
2023-09-09T16:31:05.728Z,6.13
2023-09-09T16:33:34.217Z,5.43
2023-09-09T16:36:06.087Z,5.90
2023-09-09T16:38:34.038Z,5.10
2023-09-09T16:41:01.711Z,5.70
2023-09-09T16:43:30.039Z,5.70
2023-09-09T16:45:57.724Z,6.45
2023-09-09T16:48:25.540Z,5.78
2023-09-09T16:50:53.167Z,5.60
2023-09-09T16:53:22.233Z,5.60
2023-09-09T16:55:50.528Z,6.20
2023-09-09T16:58:18.257Z,6.00
2023-09-09T17:00:49.655Z,5.88
2023-09-09T17:03:17.828Z,6.55
2023-09-09T17:05:46.947Z,6.55
2023-09-09T17:08:14.562Z,6.47
2023-09-09T17:10:42.936Z,7.25
2023-09-09T17:13:10.621Z,7.63
2023-09-09T17:15:41.579Z,7.30
2023-09-09T17:18:09.857Z,8.05
2023-09-09T17:20:37.660Z,8.07
2023-09-09T17:23:05.274Z,7.38
2023-09-09T17:25:32.931Z,7.03
2023-09-09T17:28:00.597Z,7.18
2023-09-09T17:30:31.236Z,7.90
2023-09-09T17:32:58.864Z,8.32
2023-09-09T17:35:28.672Z,7.50
2023-09-09T17:37:56.395Z,7.88
2023-09-09T17:40:24.057Z,7.65
2023-09-09T17:42:52.454Z,8.98
2023-09-09T17:45:21.420Z,6.93
2023-09-09T17:47:49.073Z,6.45
2023-09-09T17:50:16.805Z,6.32
2023-09-09T17:52:44.534Z,6.38
2023-09-09T17:55:12.829Z,6.72
2023-09-09T17:57:40.747Z,6.93
2023-09-09T18:00:09.634Z,7.03
2023-09-09T18:02:37.632Z,6.30
2023-09-09T18:05:05.703Z,5.75
2023-09-09T18:07:33.378Z,6.82
2023-09-09T18:10:00.980Z,7.28
2023-09-09T18:12:28.512Z,7.40
2023-09-09T18:14:57.163Z,7.22
2023-09-09T18:17:25.093Z,7.43
2023-09-09T18:19:52.782Z,6.22
2023-09-09T18:22:20.429Z,6.35
2023-09-09T18:24:48.017Z,6.22
2023-09-09T18:27:15.564Z,6.57
2023-09-09T18:29:43.133Z,6.60
2023-09-09T18:32:10.741Z,6.68
2023-09-09T18:34:38.359Z,6.72
2023-09-09T18:37:06.576Z,5.85
2023-09-09T18:39:34.493Z,6.20
2023-09-09T18:42:02.055Z,6.53
2023-09-09T18:44:29.666Z,7.22
2023-09-09T18:46:59.371Z,6.78
2023-09-09T18:49:28.273Z,5.60
2023-09-09T18:51:56.372Z,6.20
2023-09-09T18:54:24.309Z,7.15
2023-09-09T18:56:54.456Z,6.53
2023-09-09T18:59:22.230Z,7.13
2023-09-09T19:01:52.600Z,6.43
2023-09-09T19:04:21.907Z,6.70
2023-09-09T19:06:49.892Z,6.10
2023-09-09T19:09:19.044Z,7.03
2023-09-09T19:11:47.929Z,6.45
2023-09-09T19:14:15.483Z,6.05
2023-09-09T19:16:43.141Z,6.28
2023-09-09T19:19:10.905Z,7.50
2023-09-09T19:21:38.515Z,6.55
2023-09-09T19:24:06.310Z,6.00
2023-09-09T19:26:33.919Z,6.43
2023-09-09T19:29:01.484Z,6.30
2023-09-09T19:31:29.202Z,7.03
2023-09-09T19:33:56.806Z,7.25
2023-09-09T19:36:24.396Z,7.00
2023-09-09T19:38:52.028Z,6.40
2023-09-09T19:41:19.594Z,6.63
2023-09-09T19:43:47.305Z,5.93
2023-09-09T19:46:14.884Z,6.10
2023-09-09T19:48:42.448Z,5.90
2023-09-09T19:51:10.004Z,6.40
2023-09-09T19:53:37.649Z,6.78
2023-09-09T19:56:05.373Z,6.38
2023-09-09T19:58:33.059Z,5.75
2023-09-09T20:01:00.770Z,6.72
2023-09-09T20:03:28.452Z,6.45
2023-09-09T20:05:56.155Z,6.43
2023-09-09T20:08:23.752Z,7.00
2023-09-09T20:10:54.860Z,6.30
2023-09-09T20:13:24.305Z,6.20
2023-09-09T20:15:56.104Z,5.45
2023-09-09T20:18:23.834Z,5.75
2023-09-09T20:20:52.126Z,7.30
2023-09-09T20:23:20.808Z,6.50
2023-09-09T20:25:49.773Z,5.68
2023-09-09T20:28:17.481Z,5.85
2023-09-09T20:30:45.153Z,5.38
2023-09-09T20:33:12.852Z,5.32
2023-09-09T20:35:40.576Z,5.85
2023-09-09T20:38:09.447Z,6.88
2023-09-09T20:40:37.301Z,6.38
2023-09-09T20:43:05.173Z,6.00
2023-09-09T20:45:32.717Z,5.47
2023-09-09T20:48:00.340Z,5.57
2023-09-09T20:50:29.863Z,6.93
2023-09-09T20:52:57.463Z,6.25
2023-09-09T20:55:25.131Z,5.25
2023-09-09T20:57:52.978Z,6.63
2023-09-09T21:00:20.848Z,6.38
2023-09-09T21:02:53.547Z,7.07
2023-09-09T21:05:21.938Z,7.38
2023-09-09T21:07:50.222Z,6.68
2023-09-09T21:10:19.168Z,7.22
2023-09-09T21:12:48.648Z,5.65
2023-09-09T21:15:17.933Z,6.63
2023-09-09T21:17:46.398Z,6.68
2023-09-09T21:20:14.605Z,6.60
2023-09-09T21:22:42.316Z,7.07
2023-09-09T21:25:12.911Z,6.25
2023-09-09T21:27:40.528Z,5.97
2023-09-09T21:30:08.639Z,6.50
2023-09-09T21:32:36.348Z,6.60
2023-09-09T21:35:04.368Z,6.55
2023-09-09T21:37:32.594Z,6.47
2023-09-09T21:40:00.234Z,6.53
2023-09-09T21:42:27.784Z,6.35
2023-09-09T21:44:56.585Z,6.53
2023-09-09T21:47:24.499Z,6.05
2023-09-09T21:49:53.918Z,6.20
2023-09-09T21:52:21.948Z,6.50
2023-09-09T21:54:49.579Z,7.50
2023-09-09T21:57:17.183Z,6.90
2023-09-09T21:59:44.875Z,6.53
2023-09-09T22:02:12.764Z,5.93
2023-09-09T22:04:40.542Z,6.15
2023-09-09T22:07:08.625Z,6.22
2023-09-09T22:09:36.349Z,6.53
2023-09-09T22:12:04.901Z,6.80
2023-09-09T22:14:32.576Z,6.18
2023-09-09T22:17:03.231Z,6.68
2023-09-09T22:19:30.929Z,7.05
2023-09-09T22:21:58.546Z,6.75
2023-09-09T22:24:26.176Z,6.70
2023-09-09T22:26:57.111Z,6.32
2023-09-09T22:29:24.787Z,7.25
2023-09-09T22:31:52.352Z,6.68
2023-09-09T22:34:19.993Z,6.70
2023-09-09T22:36:47.594Z,6.97
2023-09-09T22:39:15.289Z,6.28
2023-09-09T22:41:42.850Z,5.97
2023-09-09T22:44:10.493Z,6.15
2023-09-09T22:46:38.182Z,7.43
2023-09-09T22:49:05.904Z,6.30
2023-09-09T22:51:33.557Z,7.25
2023-09-09T22:54:01.181Z,6.95
2023-09-09T22:56:28.778Z,6.32
2023-09-09T22:58:56.392Z,7.20
2023-09-09T23:01:23.961Z,7.30
2023-09-09T23:03:51.649Z,6.90
2023-09-09T23:06:19.343Z,6.03
2023-09-09T23:08:46.919Z,6.45
2023-09-09T23:11:15.134Z,6.28
2023-09-09T23:13:43.194Z,7.45
2023-09-09T23:16:11.141Z,7.07
2023-09-09T23:18:39.822Z,7.22
2023-09-09T23:21:07.655Z,6.30
2023-09-09T23:23:35.274Z,7.07
2023-09-09T23:26:03.921Z,6.25
2023-09-09T23:28:31.682Z,7.55
2023-09-09T23:31:01.382Z,6.07
2023-09-09T23:33:32.464Z,6.93
2023-09-09T23:36:07.208Z,6.82
2023-09-09T23:38:35.005Z,6.80
2023-09-09T23:41:03.445Z,7.82
2023-09-09T23:43:31.227Z,7.10
2023-09-09T23:45:58.911Z,6.43
2023-09-09T23:48:26.606Z,7.15
2023-09-09T23:50:54.188Z,6.57
2023-09-09T23:53:22.504Z,7.03
2023-09-09T23:55:50.780Z,6.63
2023-09-09T23:58:18.531Z,7.05
